Time;durP1;ratioP1;P1;durP2;ratioP2;P2;SDS_P1;SDS_P2;PMS_P1;PMS_P2;Temp;Humidity;BMP_temperature;BMP_pressure;BME280_temperature;BME280_humidity;BME280_pressure;Samples;Min_cycle;Max_cycle;Signal;HPM_P1;HPM_P2
2023/09/25 00:00:34;;;;;;;0.70;0.50;;;24.50;64.00;;;;;;5108796;28;20428;-73
2023/09/25 00:03:04;;;;;;;0.73;0.73;;;24.50;64.00;;;;;;5110116;28;20502;-74
2023/09/25 00:05:33;;;;;;;0.90;0.90;;;24.50;64.10;;;;;;5097731;28;20451;-73
2023/09/25 00:08:01;;;;;;;0.60;0.60;;;24.50;64.10;;;;;;5111005;28;20515;-73
2023/09/25 00:10:32;;;;;;;0.60;0.60;;;24.50;64.10;;;;;;5102609;28;20442;-73
2023/09/25 00:13:00;;;;;;;0.50;0.50;;;24.40;64.10;;;;;;5103377;28;20440;-73
2023/09/25 00:15:28;;;;;;;0.50;0.50;;;24.40;64.10;;;;;;5110102;28;20490;-73
2023/09/25 00:17:57;;;;;;;0.60;0.60;;;24.40;64.10;;;;;;5111385;28;20446;-74
2023/09/25 00:20:26;;;;;;;0.60;0.60;;;24.40;64.10;;;;;;5108018;28;20456;-74
2023/09/25 00:22:55;;;;;;;0.80;0.73;;;24.40;64.20;;;;;;5106404;28;20490;-73
2023/09/25 00:25:24;;;;;;;0.40;0.40;;;24.40;64.20;;;;;;5106019;28;20847;-73
2023/09/25 00:27:53;;;;;;;0.83;0.70;;;24.40;64.20;;;;;;5112347;28;20477;-73
2023/09/25 00:30:22;;;;;;;0.50;0.50;;;24.40;64.20;;;;;;5095085;28;20564;-72
2023/09/25 00:32:51;;;;;;;0.90;0.60;;;24.40;64.20;;;;;;5096687;28;20481;-73
2023/09/25 00:35:20;;;;;;;0.90;0.63;;;24.40;64.20;;;;;;5113981;28;20853;-73
2023/09/25 00:37:48;;;;;;;0.70;0.70;;;24.40;64.20;;;;;;5114089;28;20882;-73
2023/09/25 00:40:18;;;;;;;1.20;0.70;;;24.40;64.20;;;;;;5114259;28;20470;-73
2023/09/25 00:42:49;;;;;;;0.73;0.67;;;24.40;64.20;;;;;;5096097;28;20452;-73
2023/09/25 00:45:18;;;;;;;0.67;0.67;;;24.40;64.20;;;;;;5113784;28;20443;-73
2023/09/25 00:47:47;;;;;;;0.80;0.70;;;24.40;64.20;;;;;;5096492;28;20797;-73
2023/09/25 00:50:16;;;;;;;0.70;0.70;;;24.40;64.20;;;;;;5113879;28;20541;-74
2023/09/25 00:52:45;;;;;;;0.60;0.60;;;24.40;64.20;;;;;;5114029;28;20914;-73
2023/09/25 00:55:15;;;;;;;0.53;0.53;;;24.40;64.20;;;;;;5114501;28;20459;-73
2023/09/25 00:57:43;;;;;;;0.67;0.50;;;24.40;64.30;;;;;;5095492;28;20457;-73
2023/09/25 01:00:13;;;;;;;0.70;0.60;;;24.40;64.30;;;;;;5114464;28;20461;-73
2023/09/25 01:02:44;;;;;;;0.50;0.50;;;24.40;64.30;;;;;;5110676;28;20460;-73
2023/09/25 01:05:12;;;;;;;0.57;0.57;;;24.40;64.30;;;;;;5113952;28;20860;-73
2023/09/25 01:07:41;;;;;;;0.70;0.67;;;24.40;64.30;;;;;;5108850;28;20449;-73
2023/09/25 01:10:15;;;;;;;0.60;0.60;;;24.40;64.30;;;;;;5093057;28;20493;-73
2023/09/25 01:12:44;;;;;;;0.70;0.60;;;24.30;64.30;;;;;;5102255;27;20456;-73
2023/09/25 01:15:13;;;;;;;0.90;0.90;;;24.30;64.30;;;;;;5095476;28;20509;-73
2023/09/25 01:17:44;;;;;;;0.50;0.50;;;24.30;64.30;;;;;;5105423;28;20457;-73
2023/09/25 01:20:17;;;;;;;0.73;0.73;;;24.30;64.30;;;;;;5095216;28;20468;-73
2023/09/25 01:22:48;;;;;;;1.00;0.70;;;24.30;64.30;;;;;;5113828;28;20435;-73
2023/09/25 01:25:18;;;;;;;1.10;0.70;;;24.30;64.30;;;;;;5107564;28;20453;-73
2023/09/25 01:27:47;;;;;;;0.67;0.67;;;24.30;64.40;;;;;;5094936;28;20476;-73
2023/09/25 01:30:17;;;;;;;1.13;0.80;;;24.30;64.40;;;;;;5094714;28;20452;-73
2023/09/25 01:32:48;;;;;;;0.67;0.60;;;24.30;64.40;;;;;;5112867;28;20437;-73
2023/09/25 01:35:18;;;;;;;0.60;0.53;;;24.30;64.40;;;;;;5112482;28;20540;-73
2023/09/25 01:37:49;;;;;;;0.77;0.77;;;24.30;64.40;;;;;;5113259;28;20490;-74
2023/09/25 01:40:18;;;;;;;0.80;0.80;;;24.30;64.40;;;;;;5112794;28;20464;-74
2023/09/25 01:42:48;;;;;;;0.70;0.60;;;24.30;64.40;;;;;;5113476;28;20430;-73
2023/09/25 01:45:19;;;;;;;0.70;0.70;;;24.30;64.40;;;;;;5112798;28;20448;-73
2023/09/25 01:47:50;;;;;;;0.80;0.80;;;24.30;64.40;;;;;;5113197;28;20528;-73
2023/09/25 01:50:21;;;;;;;0.63;0.60;;;24.20;64.40;;;;;;5094085;28;21011;-73
2023/09/25 01:52:53;;;;;;;0.70;0.70;;;24.20;64.40;;;;;;5095350;28;20805;-73
2023/09/25 01:55:22;;;;;;;0.60;0.60;;;24.20;64.50;;;;;;5112445;28;20447;-73
2023/09/25 01:57:50;;;;;;;0.60;0.60;;;24.20;64.50;;;;;;5113586;28;20477;-73
2023/09/25 02:00:19;;;;;;;0.63;0.60;;;24.20;64.50;;;;;;5094021;28;20465;-73
2023/09/25 02:02:48;;;;;;;2.20;0.97;;;24.20;64.50;;;;;;5112420;28;20509;-73
2023/09/25 02:05:16;;;;;;;0.80;0.80;;;24.20;64.50;;;;;;5112662;28;20950;-73
2023/09/25 02:07:45;;;;;;;1.83;0.80;;;24.20;64.50;;;;;;5112885;28;20441;-73
2023/09/25 02:10:15;;;;;;;0.60;0.60;;;24.20;64.50;;;;;;5112127;28;20453;-73
2023/09/25 02:12:44;;;;;;;0.83;0.83;;;24.20;64.60;;;;;;5094640;28;20994;-73
2023/09/25 02:15:12;;;;;;;0.87;0.70;;;24.20;64.60;;;;;;5094345;28;20457;-73
2023/09/25 02:17:41;;;;;;;0.70;0.70;;;24.20;64.60;;;;;;5093279;28;20449;-72
2023/09/25 02:20:20;;;;;;;1.23;0.80;;;24.20;64.60;;;;;;5094522;28;20470;-73
2023/09/25 02:22:49;;;;;;;0.60;0.60;;;24.20;64.60;;;;;;5112223;28;20494;-72
2023/09/25 02:25:20;;;;;;;2.10;0.70;;;24.20;64.60;;;;;;5112188;28;20937;-73
2023/09/25 02:27:48;;;;;;;0.80;0.60;;;24.20;64.60;;;;;;5106635;28;20481;-73
2023/09/25 02:30:17;;;;;;;1.00;0.60;;;24.20;64.60;;;;;;5105915;28;20449;-73
2023/09/25 02:32:45;;;;;;;1.07;0.83;;;24.20;64.60;;;;;;5109795;28;20490;-73
2023/09/25 02:35:14;;;;;;;0.60;0.60;;;24.10;64.60;;;;;;5089056;28;20881;-73
2023/09/25 02:37:44;;;;;;;0.60;0.60;;;24.10;64.70;;;;;;5080523;28;20971;-73
2023/09/25 02:40:14;;;;;;;0.63;0.63;;;24.20;64.70;;;;;;5091807;28;20549;-74
2023/09/25 02:42:47;;;;;;;0.80;0.77;;;24.10;64.70;;;;;;5111186;28;20527;-74
2023/09/25 02:45:16;;;;;;;1.23;0.40;;;24.10;64.70;;;;;;5111271;28;20540;-73
2023/09/25 02:47:45;;;;;;;0.70;0.60;;;24.10;64.70;;;;;;5111878;28;20444;-73
2023/09/25 02:50:14;;;;;;;0.70;0.67;;;24.10;64.70;;;;;;5092973;28;20437;-72
2023/09/25 02:52:44;;;;;;;0.93;0.63;;;24.10;64.70;;;;;;5112074;28;20426;-73
2023/09/25 02:55:13;;;;;;;0.70;0.57;;;24.10;64.70;;;;;;5111755;28;20421;-73
2023/09/25 02:57:42;;;;;;;0.60;0.60;;;24.10;64.70;;;;;;5112458;28;20442;-73
2023/09/25 03:00:13;;;;;;;0.60;0.60;;;24.10;64.70;;;;;;5111540;28;20466;-72
2023/09/25 03:02:41;;;;;;;0.57;0.53;;;24.10;64.70;;;;;;5110249;28;20435;-73
2023/09/25 03:05:10;;;;;;;0.80;0.80;;;24.10;64.70;;;;;;5111721;28;20441;-72
2023/09/25 03:07:40;;;;;;;0.70;0.70;;;24.10;64.70;;;;;;5108290;28;20557;-72
2023/09/25 03:10:09;;;;;;;0.60;0.60;;;24.10;64.70;;;;;;5111477;28;20788;-72
2023/09/25 03:12:38;;;;;;;0.60;0.57;;;24.10;64.70;;;;;;5107982;28;20446;-72
2023/09/25 03:15:07;;;;;;;0.50;0.50;;;24.10;64.70;;;;;;5109409;28;20944;-72
2023/09/25 03:17:37;;;;;;;0.50;0.50;;;24.10;64.80;;;;;;5110164;28;20444;-73
2023/09/25 03:20:12;;;;;;;0.73;0.73;;;24.10;64.80;;;;;;5103413;28;20470;-72
2023/09/25 03:22:41;;;;;;;0.73;0.50;;;24.10;64.80;;;;;;5110649;28;20459;-72
2023/09/25 03:25:10;;;;;;;0.80;0.80;;;24.10;64.80;;;;;;5110829;28;20926;-73
2023/09/25 03:27:38;;;;;;;0.60;0.60;;;24.10;64.80;;;;;;5092088;28;20481;-72
2023/09/25 03:30:08;;;;;;;0.60;0.60;;;24.10;64.80;;;;;;5111026;28;20436;-73
2023/09/25 03:32:38;;;;;;;0.90;0.90;;;24.10;64.80;;;;;;5091160;28;20452;-73
2023/09/25 03:35:06;;;;;;;0.70;0.63;;;24.00;64.80;;;;;;5110908;28;20429;-72
2023/09/25 03:37:35;;;;;;;0.60;0.60;;;24.00;64.80;;;;;;5092057;28;20480;-73
2023/09/25 03:40:07;;;;;;;0.70;0.50;;;24.00;64.80;;;;;;5111251;28;20467;-72
2023/09/25 03:42:36;;;;;;;0.70;0.70;;;24.00;64.80;;;;;;5091619;28;20490;-73
2023/09/25 03:45:05;;;;;;;1.20;0.73;;;24.00;64.90;;;;;;5092072;28;20506;-73
2023/09/25 03:47:34;;;;;;;0.70;0.70;;;24.00;64.90;;;;;;5091812;28;20808;-73
2023/09/25 03:50:04;;;;;;;0.70;0.70;;;24.00;64.90;;;;;;5092161;28;20448;-73
2023/09/25 03:52:33;;;;;;;0.60;0.60;;;24.00;64.90;;;;;;5091961;28;20797;-73
2023/09/25 03:55:01;;;;;;;0.70;0.63;;;24.00;64.90;;;;;;5110898;28;20448;-73
2023/09/25 03:57:29;;;;;;;1.00;1.00;;;24.00;64.90;;;;;;5110532;28;20899;-73
2023/09/25 03:59:57;;;;;;;0.70;0.70;;;24.00;64.90;;;;;;5096906;28;20556;-74
2023/09/25 04:02:25;;;;;;;0.57;0.57;;;24.00;64.90;;;;;;5106954;27;20592;-73
2023/09/25 04:04:54;;;;;;;0.80;0.73;;;24.00;64.90;;;;;;5114356;28;20452;-73
2023/09/25 04:07:24;;;;;;;0.70;0.70;;;24.00;64.90;;;;;;5113802;28;20939;-73
2023/09/25 04:09:52;;;;;;;0.63;0.50;;;24.00;64.90;;;;;;5111153;28;20455;-73
2023/09/25 04:12:20;;;;;;;0.80;0.80;;;24.00;64.90;;;;;;5113902;28;20839;-72
2023/09/25 04:14:48;;;;;;;0.63;0.63;;;24.00;64.90;;;;;;5114281;28;20441;-73
2023/09/25 04:17:16;;;;;;;0.60;0.50;;;24.00;64.90;;;;;;5101878;28;20495;-73
2023/09/25 04:19:45;;;;;;;0.97;0.87;;;24.00;64.90;;;;;;5107459;28;20859;-73
2023/09/25 04:22:14;;;;;;;0.67;0.60;;;24.00;64.90;;;;;;5102707;28;22206;-73
2023/09/25 04:24:43;;;;;;;0.70;0.70;;;23.90;65.10;;;;;;5104977;28;20444;-73
2023/09/25 04:27:11;;;;;;;0.60;0.60;;;23.90;64.90;;;;;;5105890;28;20484;-73
2023/09/25 04:29:42;;;;;;;0.50;0.50;;;23.90;65.10;;;;;;5110085;28;20468;-73
2023/09/25 04:32:10;;;;;;;0.50;0.50;;;23.90;65.10;;;;;;5110737;28;21045;-72
2023/09/25 04:34:39;;;;;;;0.50;0.50;;;23.90;65.10;;;;;;5113507;28;20448;-73
2023/09/25 04:37:08;;;;;;;0.80;0.70;;;23.90;65.10;;;;;;5110131;28;20459;-74
2023/09/25 04:39:37;;;;;;;0.60;0.60;;;23.90;65.10;;;;;;5111295;28;20454;-71
2023/09/25 04:42:09;;;;;;;1.37;0.77;;;23.90;65.10;;;;;;5102060;28;20996;-74
2023/09/25 04:44:38;;;;;;;0.60;0.57;;;23.90;65.10;;;;;;5115113;27;20920;-73
2023/09/25 04:47:06;;;;;;;0.70;0.70;;;23.90;65.20;;;;;;5112484;27;20448;-74
2023/09/25 04:49:35;;;;;;;0.60;0.60;;;23.90;65.20;;;;;;5123800;27;20474;-73
2023/09/25 04:52:03;;;;;;;0.80;0.77;;;23.90;65.20;;;;;;5106160;28;20943;-73
2023/09/25 04:54:32;;;;;;;0.60;0.60;;;23.90;65.20;;;;;;5113631;28;20447;-75
2023/09/25 04:57:00;;;;;;;0.40;0.40;;;23.90;65.20;;;;;;5107555;27;20552;-73
2023/09/25 04:59:30;;;;;;;0.70;0.70;;;23.90;65.10;;;;;;5111538;28;20494;-73
2023/09/25 05:01:58;;;;;;;1.13;0.87;;;23.90;65.10;;;;;;5103921;28;20466;-72
2023/09/25 05:04:26;;;;;;;0.60;0.60;;;23.90;65.10;;;;;;5104061;28;20506;-72
2023/09/25 05:06:55;;;;;;;1.43;0.80;;;23.90;65.10;;;;;;5106401;28;20452;-73
2023/09/25 05:09:23;;;;;;;0.50;0.40;;;23.90;65.10;;;;;;5112083;28;20547;-73
2023/09/25 05:11:53;;;;;;;0.63;0.63;;;23.90;65.10;;;;;;5105983;28;20476;-73
2023/09/25 05:14:22;;;;;;;0.80;0.70;;;23.90;65.10;;;;;;5102372;28;20994;-73
2023/09/25 05:16:51;;;;;;;0.63;0.63;;;23.90;65.10;;;;;;5103658;28;20803;-73
2023/09/25 05:19:19;;;;;;;0.70;0.70;;;23.90;65.10;;;;;;5104898;28;20514;-73
2023/09/25 05:21:47;;;;;;;0.80;0.80;;;23.90;65.10;;;;;;5091638;28;20528;-73
2023/09/25 05:24:16;;;;;;;0.80;0.80;;;23.90;65.10;;;;;;5113788;28;20503;-73
2023/09/25 05:26:44;;;;;;;0.60;0.60;;;23.90;65.10;;;;;;5094475;28;20489;-73
2023/09/25 05:29:12;;;;;;;0.43;0.40;;;23.90;65.10;;;;;;5107348;28;20514;-73
2023/09/25 05:31:40;;;;;;;0.87;0.70;;;23.90;65.20;;;;;;5112244;28;20450;-73
2023/09/25 05:34:10;;;;;;;0.90;0.90;;;23.90;65.20;;;;;;5113585;28;20425;-73
2023/09/25 05:36:38;;;;;;;0.60;0.60;;;23.90;65.20;;;;;;5107532;28;20449;-74
2023/09/25 05:39:08;;;;;;;0.77;0.77;;;23.90;65.20;;;;;;5106876;28;20457;-74
2023/09/25 05:41:36;;;;;;;0.60;0.60;;;23.90;65.20;;;;;;5105634;28;20557;-74
2023/09/25 05:44:05;;;;;;;1.90;0.80;;;23.90;65.20;;;;;;5100471;28;20448;-74
2023/09/25 05:46:33;;;;;;;0.73;0.73;;;23.90;65.20;;;;;;5107153;28;20726;-73
2023/09/25 05:49:01;;;;;;;0.60;0.60;;;23.90;65.20;;;;;;5111079;28;20433;-73
2023/09/25 05:51:31;;;;;;;0.93;0.90;;;23.80;65.20;;;;;;5110285;28;21120;-74
2023/09/25 05:53:59;;;;;;;0.70;0.60;;;23.80;65.20;;;;;;5110232;27;20474;-74
2023/09/25 05:56:28;;;;;;;0.50;0.50;;;23.90;65.20;;;;;;5105057;28;20476;-73
2023/09/25 05:58:56;;;;;;;0.70;0.60;;;23.80;65.20;;;;;;5109634;28;20792;-73
2023/09/25 06:01:25;;;;;;;0.70;0.60;;;23.90;65.20;;;;;;5095931;28;20461;-73
2023/09/25 06:03:54;;;;;;;0.60;0.60;;;23.90;65.10;;;;;;5088853;28;21069;-74
2023/09/25 06:06:22;;;;;;;0.50;0.50;;;23.80;65.20;;;;;;5093438;28;20517;-73
2023/09/25 06:08:52;;;;;;;0.80;0.80;;;23.80;65.10;;;;;;5111998;28;20501;-73
2023/09/25 06:11:20;;;;;;;0.70;0.70;;;23.80;65.20;;;;;;5109539;28;20968;-74
2023/09/25 06:13:49;;;;;;;0.70;0.70;;;23.80;65.20;;;;;;5093469;28;20927;-74
2023/09/25 06:16:17;;;;;;;0.50;0.50;;;23.80;65.20;;;;;;5111183;28;20501;-73
2023/09/25 06:18:46;;;;;;;0.50;0.50;;;23.80;65.20;;;;;;5098068;28;20545;-74
2023/09/25 06:21:16;;;;;;;0.60;0.60;;;23.80;65.10;;;;;;5100985;28;20456;-72
2023/09/25 06:23:44;;;;;;;0.70;0.70;;;23.80;65.10;;;;;;5109063;28;20905;-72
2023/09/25 06:26:14;;;;;;;0.60;0.60;;;23.80;65.10;;;;;;5102542;28;20449;-72
2023/09/25 06:28:45;;;;;;;0.77;0.77;;;23.80;65.10;;;;;;5109228;28;20431;-72
2023/09/25 06:31:14;;;;;;;0.80;0.73;;;23.80;65.10;;;;;;5107909;28;20545;-73
2023/09/25 06:33:42;;;;;;;0.73;0.73;;;23.80;65.20;;;;;;5109050;28;20523;-72
2023/09/25 06:36:11;;;;;;;0.70;0.70;;;23.90;65.20;;;;;;5106580;28;20465;-72
2023/09/25 06:38:39;;;;;;;0.80;0.80;;;23.90;65.20;;;;;;5111749;28;20901;-72
2023/09/25 06:41:11;;;;;;;0.70;0.70;;;23.90;65.10;;;;;;5110970;28;20452;-73
2023/09/25 06:43:41;;;;;;;0.80;0.80;;;23.90;65.20;;;;;;5110755;28;20421;-73
2023/09/25 06:46:09;;;;;;;0.50;0.50;;;23.90;65.20;;;;;;5106968;28;20497;-72
2023/09/25 06:48:37;;;;;;;0.50;0.50;;;23.90;65.20;;;;;;5111288;28;20433;-73
2023/09/25 06:51:06;;;;;;;0.70;0.70;;;23.90;65.20;;;;;;5109089;28;20496;-73
2023/09/25 06:53:34;;;;;;;0.83;0.83;;;23.90;65.10;;;;;;5103051;27;20469;-74
2023/09/25 06:56:02;;;;;;;0.73;0.70;;;23.90;65.10;;;;;;5101896;27;20445;-72
2023/09/25 06:58:30;;;;;;;0.60;0.50;;;23.90;65.10;;;;;;5102985;28;20432;-72
2023/09/25 07:01:00;;;;;;;0.60;0.60;;;23.90;65.10;;;;;;5100561;28;20469;-73
2023/09/25 07:03:29;;;;;;;0.80;0.80;;;23.90;65.10;;;;;;5105902;28;20519;-74
2023/09/25 07:05:57;;;;;;;0.70;0.63;;;23.90;65.10;;;;;;5098301;27;21837;-70
2023/09/25 07:08:27;;;;;;;1.00;0.90;;;23.90;65.10;;;;;;5105999;28;20920;-71
2023/09/25 07:10:55;;;;;;;2.20;1.10;;;23.90;65.70;;;;;;5109005;28;20445;-71
2023/09/25 07:13:24;;;;;;;2.80;1.13;;;23.90;65.70;;;;;;5109992;28;20448;-71
2023/09/25 07:16:02;;;;;;;2.50;1.60;;;23.90;65.80;;;;;;5089004;28;20804;-71
2023/09/25 07:18:32;;;;;;;6.23;1.83;;;24.00;65.80;;;;;;5092013;28;20839;-71
2023/09/25 07:21:00;;;;;;;2.20;1.40;;;24.00;65.90;;;;;;5110419;28;20442;-71
2023/09/25 07:23:29;;;;;;;1.43;1.23;;;24.00;66.00;;;;;;5109164;28;20540;-71
2023/09/25 07:26:02;;;;;;;1.80;1.10;;;24.00;66.00;;;;;;5112553;27;20438;-71
2023/09/25 07:28:30;;;;;;;1.70;1.33;;;24.00;66.00;;;;;;5109945;28;20469;-71
2023/09/25 07:31:00;;;;;;;1.47;1.37;;;24.10;66.00;;;;;;5108975;28;20446;-71
2023/09/25 07:33:28;;;;;;;1.60;1.23;;;24.10;66.00;;;;;;5110502;28;20907;-70
2023/09/25 07:35:59;;;;;;;6.57;1.83;;;24.10;66.00;;;;;;5110965;28;20446;-71
2023/09/25 07:38:31;;;;;;;1.90;1.63;;;24.10;66.00;;;;;;5116088;27;20444;-72
2023/09/25 07:40:59;;;;;;;1.40;1.30;;;24.10;66.10;;;;;;5096058;28;20795;-71
2023/09/25 07:43:30;;;;;;;1.40;1.30;;;24.20;66.10;;;;;;5117003;28;20534;-72
2023/09/25 07:46:18;;;;;;;2.03;1.67;;;24.20;66.10;;;;;;5116002;28;20924;-72
2023/09/25 07:48:47;;;;;;;1.60;1.50;;;24.20;66.10;;;;;;5118279;27;20451;-72
2023/09/25 07:51:17;;;;;;;1.90;1.73;;;24.20;66.10;;;;;;5116978;28;20445;-71
2023/09/25 07:53:46;;;;;;;1.50;1.40;;;24.20;66.10;;;;;;5116603;28;20470;-71
2023/09/25 07:56:14;;;;;;;2.20;2.00;;;24.20;66.20;;;;;;5114370;27;20937;-71
2023/09/25 07:58:42;;;;;;;1.77;1.67;;;24.30;66.20;;;;;;5114778;28;20447;-71
2023/09/25 08:01:14;;;;;;;1.50;1.40;;;24.30;66.20;;;;;;5114141;27;20935;-71
2023/09/25 08:03:43;;;;;;;1.80;1.50;;;24.30;66.20;;;;;;5120759;27;20560;-71
2023/09/25 08:06:12;;;;;;;1.90;1.80;;;24.30;66.30;;;;;;5114886;27;21105;-71
2023/09/25 08:08:41;;;;;;;2.00;1.80;;;24.30;66.30;;;;;;5116633;28;20539;-70
2023/09/25 08:11:10;;;;;;;1.40;1.30;;;24.30;66.40;;;;;;5116545;28;20512;-70
2023/09/25 08:13:38;;;;;;;1.20;1.10;;;24.30;66.40;;;;;;5115763;28;20912;-71
2023/09/25 08:16:07;;;;;;;2.10;2.00;;;24.40;66.40;;;;;;5115718;28;20443;-71
2023/09/25 08:18:36;;;;;;;5.80;1.67;;;24.40;66.40;;;;;;5112737;28;20449;-71
2023/09/25 08:21:05;;;;;;;2.03;1.73;;;24.40;66.40;;;;;;5098030;28;20535;-71
2023/09/25 08:23:33;;;;;;;2.33;1.60;;;24.40;66.40;;;;;;5116425;28;20469;-71
2023/09/25 08:26:05;;;;;;;1.60;1.50;;;24.40;66.40;;;;;;5116718;28;20440;-71
2023/09/25 08:28:34;;;;;;;2.33;2.13;;;24.40;66.40;;;;;;5113214;28;20451;-71
2023/09/25 08:31:02;;;;;;;2.10;1.47;;;24.40;66.40;;;;;;5113904;28;20837;-70
2023/09/25 08:33:31;;;;;;;1.40;1.30;;;24.40;66.40;;;;;;5098411;28;20570;-70
2023/09/25 08:35:59;;;;;;;1.90;1.70;;;24.40;66.40;;;;;;5113171;28;20457;-71
2023/09/25 08:38:27;;;;;;;1.70;1.60;;;24.50;66.40;;;;;;5112329;28;20440;-70
2023/09/25 08:40:57;;;;;;;4.33;2.47;;;24.50;66.40;;;;;;5113652;28;20455;-71
2023/09/25 08:43:27;;;;;;;1.63;1.50;;;24.50;66.40;;;;;;5116658;27;20820;-71
2023/09/25 08:45:57;;;;;;;3.80;1.87;;;24.50;66.40;;;;;;5118241;27;20473;-71
2023/09/25 08:48:26;;;;;;;1.47;1.37;;;24.50;66.20;;;;;;5108499;27;20448;-73
2023/09/25 08:50:55;;;;;;;2.23;1.80;;;24.50;66.10;;;;;;5110775;28;20864;-73
2023/09/25 08:53:23;;;;;;;1.73;1.63;;;24.50;66.00;;;;;;5113848;28;20442;-73
2023/09/25 08:55:53;;;;;;;2.00;1.67;;;24.50;65.90;;;;;;5102517;28;20461;-73
2023/09/25 08:58:21;;;;;;;2.23;2.00;;;24.50;65.90;;;;;;5096500;27;20831;-73
2023/09/25 09:00:53;;;;;;;2.60;1.37;;;24.50;65.80;;;;;;5109143;28;20478;-73
2023/09/25 09:03:21;;;;;;;1.63;1.53;;;24.50;65.80;;;;;;5114663;28;20500;-73
2023/09/25 09:05:50;;;;;;;1.83;1.70;;;24.50;65.70;;;;;;5114000;28;20824;-73
2023/09/25 09:08:18;;;;;;;2.00;1.50;;;24.50;65.70;;;;;;5094129;28;20513;-73
2023/09/25 09:10:46;;;;;;;1.50;1.40;;;24.50;65.70;;;;;;5104252;28;20432;-73
2023/09/25 09:13:16;;;;;;;1.80;1.70;;;24.50;65.70;;;;;;5113345;28;20429;-73
2023/09/25 09:15:44;;;;;;;1.13;1.13;;;24.50;65.80;;;;;;5112534;28;20541;-73
2023/09/25 09:18:22;;;;;;;1.80;1.50;;;24.50;65.80;;;;;;5112158;28;20956;-72
2023/09/25 09:20:55;;;;;;;2.33;1.57;;;24.40;65.80;;;;;;5111762;28;20436;-73
2023/09/25 09:23:40;;;;;;;1.63;1.50;;;24.40;65.80;;;;;;5109133;28;20473;-73
2023/09/25 09:26:12;;;;;;;1.80;1.70;;;24.40;65.80;;;;;;5108561;28;20449;-73
2023/09/25 09:28:42;;;;;;;1.87;1.53;;;24.40;65.80;;;;;;5109932;27;20486;-73
2023/09/25 09:31:10;;;;;;;3.00;1.73;;;24.40;65.80;;;;;;5105633;27;20440;-73
2023/09/25 09:33:42;;;;;;;1.67;1.40;;;24.40;65.80;;;;;;5105580;28;20458;-73
2023/09/25 09:36:10;;;;;;;1.90;1.60;;;24.40;65.80;;;;;;5104577;28;20475;-71
2023/09/25 09:38:40;;;;;;;1.80;1.70;;;24.40;66.00;;;;;;5111702;28;20468;-71
2023/09/25 09:41:09;;;;;;;1.47;1.37;;;24.40;66.20;;;;;;5107610;28;20453;-71
2023/09/25 09:43:37;;;;;;;1.77;1.53;;;24.40;66.30;;;;;;5111112;28;20550;-72
2023/09/25 09:46:06;;;;;;;1.63;1.50;;;24.40;66.30;;;;;;5111424;28;20433;-72
2023/09/25 09:48:36;;;;;;;1.40;1.30;;;24.40;66.30;;;;;;5097167;28;20444;-72
2023/09/25 09:51:10;;;;;;;2.10;1.90;;;24.40;66.30;;;;;;5110760;27;20784;-71
2023/09/25 09:53:38;;;;;;;3.53;2.17;;;24.40;66.30;;;;;;5107427;28;20943;-71
2023/09/25 09:56:08;;;;;;;2.23;2.00;;;24.40;66.30;;;;;;5092645;28;20444;-71
2023/09/25 09:58:38;;;;;;;1.83;1.53;;;24.50;66.30;;;;;;5111532;28;20442;-71
2023/09/25 10:01:07;;;;;;;1.77;1.67;;;24.50;66.10;;;;;;5111022;28;20493;-73
2023/09/25 10:03:36;;;;;;;1.37;1.27;;;24.50;66.10;;;;;;5093580;28;20460;-72
2023/09/25 10:06:07;;;;;;;1.80;1.60;;;24.50;66.10;;;;;;5110700;28;20525;-72
2023/09/25 10:08:35;;;;;;;2.73;1.60;;;24.60;66.00;;;;;;5107512;28;20466;-72
2023/09/25 10:11:23;;;;;;;1.73;1.63;;;24.60;66.00;;;;;;5111273;28;20927;-72
2023/09/25 10:13:55;;;;;;;2.07;1.43;;;24.60;66.00;;;;;;5107361;28;20994;-71
2023/09/25 10:16:23;;;;;;;7.53;1.53;;;24.60;65.90;;;;;;5110953;28;21041;-72
2023/09/25 10:18:53;;;;;;;1.50;1.40;;;24.60;65.90;;;;;;5110372;28;20496;-71
2023/09/25 10:21:23;;;;;;;4.20;1.67;;;24.70;65.90;;;;;;5111112;28;20524;-72
2023/09/25 10:23:54;;;;;;;1.77;1.67;;;24.70;65.80;;;;;;5106870;28;20471;-71
2023/09/25 10:26:24;;;;;;;1.50;1.40;;;24.70;65.80;;;;;;5111067;28;20465;-71
2023/09/25 10:29:13;;;;;;;1.43;1.33;;;24.70;65.70;;;;;;5110954;28;20447;-72
2023/09/25 10:31:46;;;;;;;1.73;1.63;;;24.70;65.60;;;;;;5110183;28;20451;-72
2023/09/25 10:34:16;;;;;;;2.17;1.43;;;24.80;65.60;;;;;;5113155;27;20444;-71
2023/09/25 10:36:47;;;;;;;1.57;1.47;;;24.80;65.60;;;;;;5105397;27;20462;-72
2023/09/25 10:39:18;;;;;;;1.80;1.30;;;24.90;65.30;;;;;;5103334;28;20470;-72
2023/09/25 10:41:56;;;;;;;1.50;1.40;;;25.00;65.00;;;;;;5107599;28;20440;-72
2023/09/25 10:44:25;;;;;;;1.70;1.27;;;25.10;64.70;;;;;;5101146;27;20979;-72
2023/09/25 10:46:54;;;;;;;1.50;1.40;;;25.20;64.40;;;;;;5113916;27;20458;-72
2023/09/25 10:49:23;;;;;;;1.50;1.40;;;25.50;63.80;;;;;;5115586;27;20447;-72
2023/09/25 10:51:54;;;;;;;1.40;1.30;;;25.80;63.10;;;;;;5124837;27;20452;-72
2023/09/25 10:54:22;;;;;;;1.20;1.10;;;26.10;62.50;;;;;;5099991;28;20459;-72
2023/09/25 10:56:50;;;;;;;1.40;1.30;;;26.40;62.00;;;;;;5105335;28;20441;-71
2023/09/25 10:59:19;;;;;;;1.90;1.40;;;26.60;61.30;;;;;;5110805;28;20456;-71
2023/09/25 11:01:50;;;;;;;1.50;1.40;;;26.70;61.00;;;;;;5113633;27;20451;-72
2023/09/25 11:04:18;;;;;;;1.27;1.17;;;26.80;60.70;;;;;;5097279;28;20539;-71
2023/09/25 11:06:47;;;;;;;1.40;1.27;;;27.00;60.40;;;;;;5107584;27;20833;-72
2023/09/25 11:09:18;;;;;;;1.50;1.40;;;27.20;60.00;;;;;;5109786;28;20457;-71
2023/09/25 11:11:47;;;;;;;1.40;1.30;;;27.30;59.70;;;;;;5106577;28;20478;-71
2023/09/25 11:14:15;;;;;;;1.50;1.40;;;27.40;59.50;;;;;;5107567;28;20445;-72
2023/09/25 11:16:44;;;;;;;1.80;1.70;;;27.40;59.30;;;;;;5107838;28;20450;-71
2023/09/25 11:19:13;;;;;;;1.60;1.50;;;27.40;59.30;;;;;;5110006;27;20509;-71
2023/09/25 11:21:47;;;;;;;1.60;1.50;;;27.40;59.40;;;;;;5088590;28;20877;-71
2023/09/25 11:24:18;;;;;;;1.70;1.60;;;27.30;59.50;;;;;;5110206;27;20915;-72
2023/09/25 11:26:47;;;;;;;1.83;1.73;;;27.20;59.70;;;;;;5103011;27;20485;-71
2023/09/25 11:29:15;;;;;;;2.20;2.00;;;27.20;59.70;;;;;;5100464;28;20901;-71
2023/09/25 11:31:43;;;;;;;1.90;1.80;;;27.20;59.90;;;;;;5109392;27;20464;-72
2023/09/25 11:34:15;;;;;;;3.80;1.93;;;27.10;60.00;;;;;;5110395;28;20450;-71
2023/09/25 11:36:44;;;;;;;2.97;1.93;;;27.10;60.00;;;;;;5110922;28;20458;-71
2023/09/25 11:39:15;;;;;;;1.77;1.67;;;27.10;60.00;;;;;;5096793;28;20569;-71
2023/09/25 11:41:45;;;;;;;2.00;1.90;;;27.10;60.00;;;;;;5105844;28;20544;-72
2023/09/25 11:44:14;;;;;;;1.50;1.43;;;27.10;59.90;;;;;;5095385;28;20453;-72
2023/09/25 11:46:43;;;;;;;2.50;1.70;;;27.20;59.90;;;;;;5109142;28;20438;-71
2023/09/25 11:49:12;;;;;;;2.07;1.90;;;27.20;59.70;;;;;;5097844;28;20459;-72
2023/09/25 11:51:40;;;;;;;1.93;1.30;;;27.20;59.70;;;;;;5102141;28;20542;-71
2023/09/25 11:54:09;;;;;;;2.87;1.67;;;27.20;59.70;;;;;;5088490;28;20467;-71
2023/09/25 11:56:38;;;;;;;1.70;1.60;;;27.30;59.70;;;;;;5101702;28;20510;-71
2023/09/25 11:59:09;;;;;;;3.20;2.10;;;27.30;59.60;;;;;;5099219;28;20476;-72
2023/09/25 12:01:37;;;;;;;1.80;1.70;;;27.40;59.50;;;;;;5108800;28;20428;-72
2023/09/25 12:04:05;;;;;;;1.80;1.20;;;27.40;59.40;;;;;;5104988;28;20455;-72
2023/09/25 12:06:34;;;;;;;1.50;1.40;;;27.40;59.30;;;;;;5106849;28;20470;-72
2023/09/25 12:09:11;;;;;;;3.07;1.63;;;27.50;59.20;;;;;;5102739;28;20889;-69
2023/09/25 12:11:39;;;;;;;2.30;2.20;;;27.50;59.20;;;;;;5102616;28;20452;-70
2023/09/25 12:14:09;;;;;;;2.03;1.83;;;27.50;59.40;;;;;;5099546;28;20455;-72
2023/09/25 12:16:38;;;;;;;3.33;2.20;;;27.50;59.40;;;;;;5108177;28;20439;-71
2023/09/25 12:19:06;;;;;;;1.70;1.60;;;27.50;59.40;;;;;;5104271;28;20871;-70
2023/09/25 12:21:35;;;;;;;1.93;1.67;;;27.60;59.40;;;;;;5103767;28;20448;-72
2023/09/25 12:24:05;;;;;;;2.80;1.90;;;27.60;59.50;;;;;;5110196;27;20920;-72
2023/09/25 12:26:34;;;;;;;2.13;1.93;;;27.60;59.50;;;;;;5109786;27;20540;-71
2023/09/25 12:29:02;;;;;;;1.67;1.57;;;27.60;59.50;;;;;;5092487;28;20442;-72
2023/09/25 12:31:32;;;;;;;2.13;1.90;;;27.50;59.60;;;;;;5106606;28;20445;-72
2023/09/25 12:34:01;;;;;;;2.47;1.67;;;27.50;59.80;;;;;;5107720;28;20533;-74
2023/09/25 12:36:29;;;;;;;1.50;1.40;;;27.50;59.80;;;;;;5113256;28;20447;-75
2023/09/25 12:38:58;;;;;;;1.40;1.30;;;27.50;59.80;;;;;;5109874;27;20457;-74
2023/09/25 12:41:27;;;;;;;2.60;1.87;;;27.50;59.80;;;;;;5111607;28;20437;-74
2023/09/25 12:43:55;;;;;;;1.63;1.40;;;27.50;59.90;;;;;;5106806;27;20445;-74
2023/09/25 12:46:24;;;;;;;2.50;1.83;;;27.50;59.90;;;;;;5110776;28;20523;-73
2023/09/25 12:48:53;;;;;;;2.23;1.70;;;27.50;60.00;;;;;;5087779;27;20801;-74
2023/09/25 12:51:22;;;;;;;2.40;1.33;;;27.50;60.20;;;;;;5112083;27;21089;-73
2023/09/25 12:53:51;;;;;;;2.00;1.60;;;27.50;60.30;;;;;;5102868;28;20438;-74
2023/09/25 12:56:19;;;;;;;2.40;1.73;;;27.40;60.40;;;;;;5109759;27;20471;-74
2023/09/25 12:58:48;;;;;;;2.97;1.60;;;27.40;60.50;;;;;;5112060;27;20459;-73